Time;durP1;ratioP1;P1;durP2;ratioP2;P2;SDS_P1;SDS_P2;PMS_P1;PMS_P2;Temp;Humidity;BMP_temperature;BMP_pressure;BME280_temperature;BME280_humidity;BME280_pressure;Samples;Min_cycle;Max_cycle;Signal;HPM_P1;HPM_P2
2022/04/12 00:00:31;;;;;;;0.40;0.20;;;8.70;99.30;;;;;;5045828;28;20410;-70
2022/04/12 00:02:56;;;;;;;0.40;0.20;;;8.70;99.40;;;;;;5031238;28;20434;-70
2022/04/12 00:05:22;;;;;;;0.40;0.20;;;8.60;99.90;;;;;;5030035;28;20473;-70
2022/04/12 00:07:48;;;;;;;0.40;0.20;;;8.50;99.90;;;;;;5030753;28;20923;-70
2022/04/12 00:10:14;;;;;;;0.40;0.20;;;8.60;99.90;;;;;;5020351;28;20392;-71
2022/04/12 00:12:40;;;;;;;0.40;0.30;;;8.50;99.90;;;;;;5011308;28;20881;-70
2022/04/12 00:15:08;;;;;;;0.40;0.20;;;8.50;99.90;;;;;;5011402;28;20421;-70
2022/04/12 00:20:20;;;;;;;0.40;0.20;;;8.50;99.90;;;;;;5010682;28;20435;-71
2022/04/12 00:22:46;;;;;;;0.40;0.20;;;8.40;99.90;;;;;;5011086;28;20381;-70
2022/04/12 00:25:12;;;;;;;0.60;0.40;;;8.30;99.90;;;;;;5011352;28;20419;-70
2022/04/12 00:27:40;;;;;;;0.40;0.28;;;8.30;99.90;;;;;;5010477;28;20380;-70
2022/04/12 00:30:08;;;;;;;0.40;0.30;;;8.30;99.90;;;;;;5011370;28;20384;-70
2022/04/12 00:32:33;;;;;;;0.40;0.20;;;8.20;99.90;;;;;;5010036;28;20467;-70
2022/04/12 00:35:00;;;;;;;0.40;0.20;;;8.20;99.90;;;;;;5010578;28;20500;-70
2022/04/12 00:37:26;;;;;;;1.33;0.30;;;8.10;99.90;;;;;;5009762;28;20865;-70
2022/04/12 00:39:52;;;;;;;0.40;0.20;;;8.00;99.90;;;;;;5009169;28;20423;-69
2022/04/12 00:42:19;;;;;;;0.40;0.20;;;8.10;99.90;;;;;;5010728;28;20430;-70
2022/04/12 00:44:45;;;;;;;0.40;0.20;;;8.00;99.90;;;;;;5009734;28;20924;-70
2022/04/12 00:47:10;;;;;;;0.40;0.20;;;7.90;99.90;;;;;;5011016;28;20400;-70
2022/04/12 00:49:36;;;;;;;0.40;0.20;;;8.00;99.90;;;;;;5010254;28;20381;-71
2022/04/12 00:52:04;;;;;;;0.40;0.20;;;8.00;99.90;;;;;;5010240;28;20384;-69
2022/04/12 00:54:32;;;;;;;0.60;0.60;;;7.80;99.90;;;;;;5010275;28;20417;-70
2022/04/12 00:56:59;;;;;;;0.40;0.20;;;7.80;99.90;;;;;;5009574;28;20380;-70
2022/04/12 00:59:25;;;;;;;0.40;0.30;;;7.90;99.90;;;;;;5010832;28;20381;-69
2022/04/12 01:01:51;;;;;;;0.40;0.20;;;7.80;99.90;;;;;;5009603;28;20726;-70
2022/04/12 01:04:18;;;;;;;0.40;0.30;;;7.80;99.90;;;;;;5010673;28;20403;-70
2022/04/12 01:06:44;;;;;;;0.40;0.20;;;7.80;99.90;;;;;;5010502;28;20396;-70
2022/04/12 01:09:10;;;;;;;0.40;0.20;;;7.70;99.90;;;;;;5010602;28;20401;-70
2022/04/12 01:11:37;;;;;;;0.40;0.20;;;7.80;99.90;;;;;;5030590;28;20386;-70
2022/04/12 01:14:03;;;;;;;0.40;0.20;;;7.70;99.90;;;;;;5029639;28;20753;-70
2022/04/12 01:16:29;;;;;;;0.40;0.20;;;7.70;99.90;;;;;;5030342;28;20401;-70
2022/04/12 01:18:54;;;;;;;0.40;0.20;;;7.60;99.90;;;;;;5029589;28;20419;-71
2022/04/12 01:21:21;;;;;;;0.40;0.20;;;7.60;99.90;;;;;;5029718;28;20406;-69
2022/04/12 01:23:59;;;;;;;0.40;0.20;;;7.60;99.90;;;;;;5030270;28;20388;-69
2022/04/12 01:26:25;;;;;;;0.40;0.20;;;7.50;99.90;;;;;;5030090;28;20395;-70
2022/04/12 01:28:50;;;;;;;0.40;0.20;;;7.50;99.90;;;;;;5030215;28;20387;-70
2022/04/12 01:31:16;;;;;;;0.40;0.20;;;7.40;99.90;;;;;;5029093;28;20383;-70
2022/04/12 01:33:42;;;;;;;0.40;0.20;;;7.40;99.90;;;;;;5030090;28;20414;-70
2022/04/12 01:36:08;;;;;;;0.40;0.20;;;7.40;99.90;;;;;;5029518;28;20383;-71
2022/04/12 01:38:33;;;;;;;0.40;0.20;;;7.40;99.90;;;;;;5029628;28;20884;-70
2022/04/12 01:40:59;;;;;;;0.40;0.20;;;7.40;99.90;;;;;;5030058;28;20860;-70
2022/04/12 01:43:25;;;;;;;0.40;0.20;;;7.40;99.90;;;;;;5029140;28;20927;-70
2022/04/12 01:45:50;;;;;;;0.40;0.30;;;7.30;99.90;;;;;;5029715;28;20391;-70
2022/04/12 01:48:16;;;;;;;0.40;0.20;;;7.30;99.90;;;;;;5029411;28;20415;-71
2022/04/12 01:50:42;;;;;;;0.40;0.20;;;7.20;99.90;;;;;;5033932;28;20379;-70
2022/04/12 01:53:07;;;;;;;0.40;0.30;;;7.30;99.90;;;;;;5033851;28;20411;-70
2022/04/12 01:55:33;;;;;;;0.40;0.20;;;7.30;99.90;;;;;;5031529;28;20906;-70
2022/04/12 01:57:58;;;;;;;0.40;0.20;;;7.30;99.90;;;;;;5033527;28;20731;-70
2022/04/12 02:00:24;;;;;;;0.40;0.30;;;7.40;99.90;;;;;;5032931;28;20379;-71
2022/04/12 02:02:50;;;;;;;0.40;0.20;;;7.40;99.90;;;;;;5033434;28;20387;-70
2022/04/12 02:05:15;;;;;;;0.40;0.30;;;7.50;99.90;;;;;;5033304;28;20887;-70
2022/04/12 02:07:43;;;;;;;0.40;0.20;;;7.50;99.90;;;;;;5032234;28;20424;-70
2022/04/12 02:10:09;;;;;;;0.40;0.20;;;7.40;99.90;;;;;;5025243;28;20818;-70
2022/04/12 02:12:35;;;;;;;0.40;0.20;;;7.40;99.90;;;;;;5012336;28;20393;-70
2022/04/12 02:15:00;;;;;;;0.40;0.20;;;7.50;99.90;;;;;;5013371;28;20754;-70
2022/04/12 02:17:26;;;;;;;0.40;0.20;;;7.40;99.90;;;;;;5013276;28;20435;-70
2022/04/12 02:19:52;;;;;;;0.40;0.20;;;7.50;99.90;;;;;;5012800;28;20395;-70
2022/04/12 02:22:18;;;;;;;0.40;0.20;;;7.50;99.90;;;;;;5013054;28;20468;-70
2022/04/12 02:24:43;;;;;;;0.40;0.20;;;7.40;99.90;;;;;;5012456;28;20389;-70
2022/04/12 02:27:09;;;;;;;0.40;0.20;;;7.50;99.90;;;;;;5012886;28;20396;-70
2022/04/12 02:29:34;;;;;;;0.40;0.20;;;7.40;99.90;;;;;;5012867;28;20438;-69
2022/04/12 02:32:00;;;;;;;0.40;0.20;;;7.50;99.90;;;;;;5012268;28;20377;-70
2022/04/12 02:34:26;;;;;;;0.40;0.20;;;7.40;99.90;;;;;;5013532;28;20870;-70
2022/04/12 02:36:51;;;;;;;0.40;0.20;;;7.50;99.90;;;;;;5012960;28;20857;-70
2022/04/12 02:39:17;;;;;;;0.40;0.20;;;7.40;99.90;;;;;;5013167;28;20432;-70
2022/04/12 02:41:43;;;;;;;0.40;0.20;;;7.40;99.90;;;;;;5013000;28;20519;-70
2022/04/12 02:44:08;;;;;;;0.40;0.20;;;7.50;99.90;;;;;;5011781;28;20750;-70
2022/04/12 02:46:34;;;;;;;0.40;0.20;;;7.40;99.90;;;;;;5012648;28;20392;-70
2022/04/12 02:49:00;;;;;;;0.40;0.20;;;7.30;99.90;;;;;;5010826;28;20397;-71
2022/04/12 02:51:25;;;;;;;0.40;0.20;;;7.40;99.90;;;;;;5012573;28;20388;-70
2022/04/12 02:53:51;;;;;;;0.40;0.20;;;7.30;99.90;;;;;;5012669;28;20420;-70
2022/04/12 02:56:17;;;;;;;0.40;0.20;;;7.40;99.90;;;;;;5010576;28;20404;-70
2022/04/12 02:58:42;;;;;;;0.40;0.20;;;7.50;99.90;;;;;;5012631;28;20525;-70
2022/04/12 03:01:08;;;;;;;0.40;0.20;;;7.60;99.90;;;;;;5011556;28;20419;-71
2022/04/12 03:03:34;;;;;;;0.40;0.20;;;7.70;99.90;;;;;;5012511;28;20388;-70
2022/04/12 03:06:00;;;;;;;0.40;0.20;;;7.70;99.90;;;;;;5011261;28;20397;-70
2022/04/12 03:08:25;;;;;;;0.40;0.20;;;7.70;99.90;;;;;;5011253;28;20392;-70
2022/04/12 03:10:51;;;;;;;0.40;0.20;;;7.70;99.90;;;;;;5025545;28;20391;-69
2022/04/12 03:13:16;;;;;;;0.40;0.20;;;7.70;99.90;;;;;;5031094;28;20382;-71
2022/04/12 03:15:42;;;;;;;0.40;0.20;;;7.80;99.90;;;;;;5032139;28;20420;-70
2022/04/12 03:18:08;;;;;;;0.40;0.30;;;7.70;99.90;;;;;;5032065;28;20383;-70
2022/04/12 03:20:34;;;;;;;0.40;0.20;;;7.80;99.90;;;;;;5031407;28;20383;-70
2022/04/12 03:23:00;;;;;;;0.40;0.20;;;7.70;99.90;;;;;;5030749;28;20406;-70
2022/04/12 03:25:25;;;;;;;0.40;0.20;;;7.80;99.90;;;;;;5029667;28;20740;-71
2022/04/12 03:27:51;;;;;;;0.40;0.20;;;7.70;99.90;;;;;;5031773;28;20466;-70
2022/04/12 03:30:17;;;;;;;0.40;0.20;;;7.70;99.90;;;;;;5031883;28;20430;-70
2022/04/12 03:32:43;;;;;;;0.40;0.20;;;7.70;99.90;;;;;;5031277;28;20855;-71
2022/04/12 03:35:09;;;;;;;0.40;0.20;;;7.70;99.90;;;;;;5032005;28;20756;-70
2022/04/12 03:37:34;;;;;;;0.40;0.20;;;7.80;99.90;;;;;;5031114;28;20410;-71
2022/04/12 03:40:00;;;;;;;0.53;0.47;;;7.70;99.90;;;;;;5031743;28;20395;-70
2022/04/12 03:42:26;;;;;;;0.40;0.30;;;7.70;99.90;;;;;;5031898;28;20929;-70
2022/04/12 03:44:52;;;;;;;0.60;0.40;;;7.70;99.90;;;;;;5030816;28;20391;-68
2022/04/12 03:47:18;;;;;;;0.40;0.20;;;7.70;99.90;;;;;;5031958;28;20386;-70
2022/04/12 03:49:44;;;;;;;0.40;0.20;;;7.80;99.90;;;;;;5031239;28;20375;-71
2022/04/12 03:52:09;;;;;;;0.40;0.20;;;7.80;99.90;;;;;;5031804;28;20390;-70
2022/04/12 03:54:36;;;;;;;6.20;0.90;;;7.80;99.90;;;;;;5031395;28;20414;-70
2022/04/12 03:57:02;;;;;;;0.40;0.20;;;7.90;99.90;;;;;;5030885;28;20375;-70
2022/04/12 03:59:28;;;;;;;0.40;0.30;;;7.90;99.90;;;;;;5031645;28;20478;-70
2022/04/12 04:01:53;;;;;;;0.40;0.20;;;7.90;99.90;;;;;;5030589;28;20470;-70
2022/04/12 04:04:19;;;;;;;0.40;0.20;;;7.80;99.90;;;;;;5031206;28;20403;-70
2022/04/12 04:06:45;;;;;;;0.80;0.80;;;7.80;99.90;;;;;;5031260;28;20390;-70
2022/04/12 04:09:11;;;;;;;1.40;0.60;;;7.80;99.90;;;;;;5045571;28;20383;-71
2022/04/12 04:11:43;;;;;;;0.40;0.20;;;7.80;99.90;;;;;;5010619;28;20786;-70
2022/04/12 04:14:10;;;;;;;0.40;0.20;;;7.60;99.90;;;;;;5010425;28;20900;-71
2022/04/12 04:16:38;;;;;;;0.40;0.20;;;7.50;99.90;;;;;;5010568;28;20393;-70
2022/04/12 04:19:08;;;;;;;0.40;0.20;;;7.40;99.90;;;;;;5010713;28;20392;-71
2022/04/12 04:21:37;;;;;;;0.40;0.20;;;7.50;99.90;;;;;;5011624;28;20741;-71
2022/04/12 04:24:04;;;;;;;0.40;0.20;;;7.40;99.90;;;;;;5010703;28;20389;-71
2022/04/12 04:26:29;;;;;;;0.40;0.20;;;7.40;99.90;;;;;;5010219;28;20404;-70
2022/04/12 04:28:55;;;;;;;0.40;0.20;;;7.40;99.90;;;;;;5011304;28;20495;-71
2022/04/12 04:31:21;;;;;;;0.40;0.20;;;7.40;99.90;;;;;;5009380;28;20396;-71
2022/04/12 04:33:47;;;;;;;0.40;0.20;;;7.40;99.90;;;;;;5011360;28;20549;-70
2022/04/12 04:36:13;;;;;;;0.40;0.20;;;7.30;99.90;;;;;;5010466;28;20858;-71
2022/04/12 04:38:39;;;;;;;0.40;0.20;;;7.40;99.90;;;;;;5011110;28;20419;-71
2022/04/12 04:41:04;;;;;;;0.40;0.20;;;7.30;99.90;;;;;;5011041;28;20381;-70
2022/04/12 04:43:30;;;;;;;0.40;0.20;;;7.30;99.90;;;;;;5010349;28;20498;-70
2022/04/12 04:45:56;;;;;;;0.40;0.20;;;7.30;99.90;;;;;;5011289;28;20384;-70
2022/04/12 04:48:21;;;;;;;0.40;0.20;;;7.30;99.90;;;;;;5007510;28;20402;-70
2022/04/12 04:50:48;;;;;;;0.40;0.20;;;7.40;99.90;;;;;;5010779;28;20381;-70
2022/04/12 04:53:14;;;;;;;0.40;0.20;;;7.40;99.90;;;;;;5009657;28;20393;-70
2022/04/12 04:55:43;;;;;;;0.40;0.20;;;7.40;99.90;;;;;;5017740;28;20801;-70
2022/04/12 04:58:09;;;;;;;0.40;0.20;;;7.40;99.90;;;;;;5010664;28;20444;-70
2022/04/12 05:00:35;;;;;;;0.40;0.20;;;7.30;99.90;;;;;;5009837;28;20468;-70
2022/04/12 05:03:02;;;;;;;0.40;0.20;;;7.30;99.90;;;;;;5010890;28;20480;-70
2022/04/12 05:05:28;;;;;;;0.40;0.22;;;7.30;99.90;;;;;;5010335;28;20459;-72
2022/04/12 05:07:56;;;;;;;0.40;0.27;;;7.30;99.90;;;;;;5010365;28;20431;-70
2022/04/12 05:10:24;;;;;;;0.40;0.20;;;7.30;99.90;;;;;;5020674;28;20471;-69
2022/04/12 05:12:50;;;;;;;0.40;0.20;;;7.40;99.90;;;;;;5007965;28;21032;-70
2022/04/12 05:15:16;;;;;;;0.40;0.20;;;7.40;99.90;;;;;;5006249;28;20513;-69
2022/04/12 05:17:51;;;;;;;0.40;0.20;;;7.30;99.90;;;;;;5010207;28;20463;-70
2022/04/12 05:20:18;;;;;;;0.40;0.20;;;7.40;99.90;;;;;;5010434;28;20388;-70
2022/04/12 05:22:44;;;;;;;0.40;0.20;;;7.40;99.90;;;;;;5010794;28;20385;-70
2022/04/12 05:25:10;;;;;;;0.40;0.30;;;7.50;99.90;;;;;;5014615;28;20495;-70
2022/04/12 05:27:36;;;;;;;0.40;0.20;;;7.60;99.90;;;;;;5014713;28;20715;-70
2022/04/12 05:30:04;;;;;;;0.40;0.20;;;7.60;99.90;;;;;;5013799;28;20388;-70
2022/04/12 05:32:29;;;;;;;0.40;0.20;;;7.70;99.90;;;;;;5014278;28;20451;-70
2022/04/12 05:34:55;;;;;;;0.40;0.20;;;7.60;99.90;;;;;;5013732;28;20876;-70
2022/04/12 05:37:21;;;;;;;0.40;0.20;;;7.60;99.90;;;;;;5014249;28;20392;-70
2022/04/12 05:39:47;;;;;;;0.40;0.20;;;7.70;99.90;;;;;;5014744;28;20471;-69
2022/04/12 05:42:13;;;;;;;0.40;0.30;;;7.90;99.90;;;;;;5014108;28;20451;-69
2022/04/12 05:44:38;;;;;;;0.40;0.20;;;8.00;99.90;;;;;;5014286;28;20862;-68
2022/04/12 05:47:05;;;;;;;0.40;0.20;;;8.00;99.90;;;;;;5013954;28;20430;-69
2022/04/12 05:49:31;;;;;;;0.40;0.30;;;8.10;99.90;;;;;;5014288;28;20427;-68
2022/04/12 05:51:57;;;;;;;0.40;0.30;;;8.20;99.90;;;;;;5013624;28;20842;-70
2022/04/12 05:54:24;;;;;;;0.40;0.20;;;8.20;99.90;;;;;;5013623;28;20443;-68
2022/04/12 05:56:50;;;;;;;0.40;0.20;;;8.20;99.90;;;;;;5012980;28;20412;-68
2022/04/12 05:59:16;;;;;;;0.40;0.20;;;8.30;99.90;;;;;;5013541;28;20388;-69
2022/04/12 06:01:42;;;;;;;0.40;0.20;;;8.20;99.90;;;;;;5014092;28;20442;-68
2022/04/12 06:04:09;;;;;;;0.40;0.20;;;8.40;99.90;;;;;;5013508;28;20384;-69
2022/04/12 06:06:35;;;;;;;0.40;0.20;;;8.50;99.90;;;;;;5013833;28;20434;-68
2022/04/12 06:09:02;;;;;;;0.40;0.20;;;8.50;99.90;;;;;;5014283;28;20392;-68
2022/04/12 06:11:28;;;;;;;0.40;0.20;;;8.70;99.90;;;;;;5031750;28;20406;-68
2022/04/12 06:13:54;;;;;;;0.40;0.30;;;8.90;99.90;;;;;;5033067;28;20415;-68
2022/04/12 06:16:20;;;;;;;0.40;0.20;;;9.20;99.90;;;;;;5032436;28;20736;-69
2022/04/12 06:18:46;;;;;;;0.40;0.40;;;9.20;99.90;;;;;;5033270;28;20390;-68
2022/04/12 06:21:11;;;;;;;0.40;0.20;;;9.30;99.90;;;;;;5033442;28;20379;-69
2022/04/12 06:23:37;;;;;;;0.40;0.20;;;9.60;99.90;;;;;;5032650;28;20907;-69
2022/04/12 06:26:03;;;;;;;0.40;0.20;;;9.80;99.90;;;;;;5033014;28;20413;-68
2022/04/12 06:28:30;;;;;;;0.40;0.20;;;9.80;99.90;;;;;;5032632;28;20383;-68
2022/04/12 06:30:58;;;;;;;0.40;0.20;;;9.90;99.90;;;;;;5032190;28;20867;-67
2022/04/12 06:33:24;;;;;;;1.00;1.00;;;10.00;99.90;;;;;;5032608;28;20383;-69
2022/04/12 06:35:50;;;;;;;0.40;0.20;;;10.20;99.90;;;;;;5032136;28;20379;-68
2022/04/12 06:38:16;;;;;;;1.27;1.17;;;10.30;99.00;;;;;;5032887;28;20418;-68
2022/04/12 06:40:44;;;;;;;0.40;0.20;;;10.40;98.60;;;;;;5031991;28;20752;-69
2022/04/12 06:43:11;;;;;;;0.40;0.20;;;10.50;98.10;;;;;;5033073;28;20461;-68
2022/04/12 06:45:37;;;;;;;0.40;0.30;;;10.60;97.70;;;;;;5032071;28;20394;-69
2022/04/12 06:48:03;;;;;;;0.40;0.20;;;10.70;95.90;;;;;;5032977;28;20415;-68
2022/04/12 06:50:28;;;;;;;0.90;0.90;;;10.70;96.30;;;;;;5032808;28;20744;-68
2022/04/12 06:52:56;;;;;;;0.40;0.20;;;10.70;97.10;;;;;;5047303;28;21042;-69
2022/04/12 06:55:22;;;;;;;0.40;0.20;;;10.90;96.50;;;;;;5032656;28;20415;-69
2022/04/12 06:57:47;;;;;;;0.40;0.20;;;10.90;96.70;;;;;;5031832;28;20380;-69
2022/04/12 07:00:14;;;;;;;0.40;0.20;;;11.00;96.20;;;;;;5032907;28;20371;-69
2022/04/12 07:02:40;;;;;;;0.40;0.30;;;11.10;96.60;;;;;;5032161;28;20410;-70
2022/04/12 07:05:07;;;;;;;0.40;0.30;;;11.20;96.30;;;;;;5032360;28;20395;-68
2022/04/12 07:07:38;;;;;;;0.40;0.30;;;11.30;93.90;;;;;;5032669;28;20387;-68
2022/04/12 07:10:10;;;;;;;0.40;0.20;;;11.40;92.90;;;;;;5024226;28;20373;-68
2022/04/12 07:12:37;;;;;;;1.60;0.60;;;11.40;92.70;;;;;;5012749;28;20404;-68
2022/04/12 07:15:04;;;;;;;0.40;0.30;;;11.50;92.50;;;;;;5011908;28;20472;-68
2022/04/12 07:17:30;;;;;;;0.40;0.20;;;11.50;92.30;;;;;;5012249;28;20439;-68
2022/04/12 07:19:55;;;;;;;0.40;0.30;;;11.60;91.70;;;;;;5010642;28;20397;-69
2022/04/12 07:22:21;;;;;;;0.40;0.20;;;11.60;91.60;;;;;;5011355;28;20385;-69
2022/04/12 07:24:47;;;;;;;0.40;0.20;;;11.80;91.30;;;;;;5011707;28;20389;-68
2022/04/12 07:27:13;;;;;;;0.40;0.20;;;11.80;91.20;;;;;;5011817;28;21068;-69
2022/04/12 07:29:39;;;;;;;0.40;0.20;;;11.80;91.20;;;;;;5012131;28;20389;-69
2022/04/12 07:32:05;;;;;;;0.55;0.50;;;11.90;90.60;;;;;;5011549;28;20491;-69
2022/04/12 07:34:31;;;;;;;0.40;0.20;;;12.10;90.60;;;;;;5012372;28;20413;-68
2022/04/12 07:36:57;;;;;;;0.47;0.35;;;12.20;90.00;;;;;;5011962;28;20385;-69
2022/04/12 07:39:24;;;;;;;0.40;0.30;;;12.40;88.70;;;;;;5011197;28;20412;-68
2022/04/12 07:41:51;;;;;;;0.40;0.28;;;12.50;87.40;;;;;;5011823;28;20389;-68
2022/04/12 07:44:18;;;;;;;0.40;0.20;;;12.40;87.40;;;;;;5011452;28;20389;-68
2022/04/12 07:46:45;;;;;;;0.40;0.30;;;12.60;87.80;;;;;;5010961;28;20479;-68
2022/04/12 07:49:11;;;;;;;0.40;0.20;;;12.80;86.20;;;;;;5010148;28;20389;-68
2022/04/12 07:51:37;;;;;;;0.40;0.20;;;12.90;82.40;;;;;;5012315;28;20780;-68
2022/04/12 07:54:04;;;;;;;0.40;0.30;;;13.00;80.90;;;;;;5011979;28;20413;-68
2022/04/12 07:56:31;;;;;;;0.40;0.20;;;13.20;78.90;;;;;;5011103;28;20395;-68
2022/04/12 07:58:57;;;;;;;0.40;0.20;;;13.30;78.60;;;;;;5012089;28;20381;-69
2022/04/12 08:01:23;;;;;;;0.40;0.30;;;13.20;77.20;;;;;;5010960;28;20385;-69
2022/04/12 08:03:48;;;;;;;0.40;0.20;;;13.40;76.20;;;;;;5011632;28;20442;-68
2022/04/12 08:06:14;;;;;;;0.60;0.60;;;13.50;75.30;;;;;;5011732;28;20400;-68
2022/04/12 08:08:40;;;;;;;0.40;0.30;;;13.60;75.20;;;;;;5009918;28;20484;-69
2022/04/12 08:11:07;;;;;;;0.40;0.30;;;13.70;75.90;;;;;;5011781;28;20897;-69
2022/04/12 08:13:33;;;;;;;0.50;0.50;;;13.70;75.40;;;;;;5009694;28;20885;-69
2022/04/12 08:15:59;;;;;;;0.40;0.20;;;13.80;74.40;;;;;;5011978;28;20384;-70
2022/04/12 08:18:25;;;;;;;0.40;0.20;;;13.80;74.60;;;;;;5010972;28;20416;-69
2022/04/12 08:20:51;;;;;;;0.40;0.20;;;14.00;74.60;;;;;;5011916;28;20420;-69
2022/04/12 08:23:17;;;;;;;0.40;0.20;;;14.20;73.00;;;;;;5011215;28;20388;-68
2022/04/12 08:25:43;;;;;;;0.60;0.60;;;14.30;71.80;;;;;;5010478;28;20897;-69
2022/04/12 08:28:09;;;;;;;0.40;0.20;;;14.30;70.60;;;;;;5010233;28;20497;-69
2022/04/12 08:30:36;;;;;;;4.20;0.90;;;14.30;70.40;;;;;;5009504;28;20389;-68
2022/04/12 08:33:02;;;;;;;0.50;0.50;;;14.50;69.20;;;;;;5011255;28;20389;-69
2022/04/12 08:35:28;;;;;;;0.40;0.20;;;14.60;68.60;;;;;;5011126;28;20417;-68
2022/04/12 08:37:54;;;;;;;0.40;0.20;;;14.60;65.10;;;;;;5008959;28;20420;-68
2022/04/12 08:40:20;;;;;;;0.40;0.20;;;14.70;66.80;;;;;;5011317;28;20397;-69
2022/04/12 08:42:47;;;;;;;0.40;0.30;;;14.80;66.50;;;;;;5010308;28;20388;-68
2022/04/12 08:45:13;;;;;;;0.40;0.30;;;14.90;65.20;;;;;;5011005;28;20886;-69
2022/04/12 08:47:41;;;;;;;0.40;0.20;;;15.00;65.20;;;;;;5009434;28;20393;-70
2022/04/12 08:50:09;;;;;;;0.40;0.30;;;15.10;64.60;;;;;;5009600;28;20388;-68
2022/04/12 08:52:38;;;;;;;0.40;0.20;;;15.30;65.80;;;;;;5011085;28;20381;-68
2022/04/12 08:55:05;;;;;;;0.40;0.30;;;15.20;64.60;;;;;;5010283;28;20408;-68
2022/04/12 08:57:31;;;;;;;0.40;0.20;;;15.30;65.20;;;;;;5010655;28;20389;-69
2022/04/12 08:59:57;;;;;;;0.40;0.20;;;15.40;64.60;;;;;;5010400;28;20436;-69
2022/04/12 09:02:23;;;;;;;0.50;0.50;;;15.30;64.20;;;;;;5010893;28;20882;-69
2022/04/12 09:04:49;;;;;;;0.40;0.40;;;15.50;63.20;;;;;;5010563;28;20757;-71
2022/04/12 09:07:15;;;;;;;0.40;0.30;;;15.50;62.70;;;;;;5010625;28;20403;-68
2022/04/12 09:09:42;;;;;;;0.40;0.30;;;15.40;62.20;;;;;;5015234;28;20410;-68
2022/04/12 09:12:11;;;;;;;0.40;0.30;;;15.40;62.20;;;;;;5030137;28;20474;-69
2022/04/12 09:14:44;;;;;;;1.00;0.90;;;15.60;62.90;;;;;;5030585;28;20415;-69
2022/04/12 09:17:20;;;;;;;0.40;0.20;;;15.60;62.80;;;;;;5029740;28;20418;-69
2022/04/12 09:19:47;;;;;;;0.40;0.20;;;15.60;61.40;;;;;;5030732;28;20425;-69
2022/04/12 09:22:15;;;;;;;0.40;0.30;;;15.70;61.80;;;;;;5029664;28;20399;-69
2022/04/12 09:24:44;;;;;;;0.80;0.70;;;15.50;60.90;;;;;;5030544;28;20478;-69
2022/04/12 09:27:18;;;;;;;0.40;0.20;;;15.50;61.60;;;;;;5029836;28;20402;-69
2022/04/12 09:29:46;;;;;;;0.40;0.20;;;15.50;61.50;;;;;;5030549;28;20383;-69
2022/04/12 09:32:14;;;;;;;0.40;0.20;;;15.50;61.60;;;;;;5029752;28;20383;-68
2022/04/12 09:34:42;;;;;;;0.90;0.50;;;15.70;61.70;;;;;;5030248;28;20419;-68
2022/04/12 09:37:25;;;;;;;0.40;0.20;;;15.70;62.90;;;;;;5029369;28;20387;-70
2022/04/12 09:40:02;;;;;;;0.50;0.40;;;15.70;61.80;;;;;;5030534;28;20467;-68
2022/04/12 09:42:57;;;;;;;0.70;0.50;;;15.80;62.60;;;;;;5029448;28;20395;-69
2022/04/12 09:45:24;;;;;;;0.52;0.50;;;16.00;62.20;;;;;;5044746;28;20402;-69
2022/04/12 09:47:57;;;;;;;0.40;0.20;;;16.10;63.10;;;;;;5030252;28;20482;-69
2022/04/12 09:50:27;;;;;;;0.40;0.20;;;16.10;62.40;;;;;;5029575;28;20438;-70
2022/04/12 09:52:57;;;;;;;0.40;0.20;;;16.20;62.40;;;;;;5030263;28;20441;-69
2022/04/12 09:55:49;;;;;;;0.40;0.20;;;16.20;61.40;;;;;;5029496;28;20415;-69
2022/04/12 09:58:17;;;;;;;0.40;0.30;;;16.50;61.60;;;;;;5029451;28;20399;-71
2022/04/12 10:00:47;;;;;;;0.40;0.20;;;16.40;61.80;;;;;;5030009;28;20382;-69
2022/04/12 10:03:15;;;;;;;0.50;0.50;;;16.50;61.60;;;;;;5030245;28;20770;-68
2022/04/12 10:05:42;;;;;;;0.40;0.20;;;16.60;61.80;;;;;;5029177;28;21075;-67
2022/04/12 10:08:12;;;;;;;0.40;0.40;;;16.80;61.40;;;;;;5030325;28;20815;-67
2022/04/12 10:10:41;;;;;;;0.40;0.30;;;16.80;59.70;;;;;;5031715;28;20879;-68
2022/04/12 10:13:09;;;;;;;0.70;0.70;;;16.90;60.40;;;;;;5033429;28;20402;-68
2022/04/12 10:15:36;;;;;;;0.43;0.43;;;17.10;60.90;;;;;;5032787;28;20433;-69
2022/04/12 10:18:03;;;;;;;0.40;0.20;;;17.10;60.20;;;;;;5033337;28;20464;-68
2022/04/12 10:20:29;;;;;;;0.40;0.20;;;17.10;62.20;;;;;;5031923;28;20463;-70
2022/04/12 10:22:57;;;;;;;0.40;0.20;;;17.30;60.90;;;;;;5048539;28;20403;-68
2022/04/12 10:25:24;;;;;;;0.40;0.20;;;17.50;59.10;;;;;;5033423;28;20407;-68
2022/04/12 10:27:55;;;;;;;0.40;0.20;;;17.60;60.70;;;;;;5032365;28;21393;-68
2022/04/12 10:30:22;;;;;;;0.40;0.20;;;17.80;58.00;;;;;;5033076;28;20821;-67
2022/04/12 10:33:08;;;;;;;0.40;0.20;;;17.50;58.40;;;;;;5032369;28;20391;-68
2022/04/12 10:35:46;;;;;;;0.40;0.30;;;17.90;58.60;;;;;;5031802;28;20423;-70
2022/04/12 10:38:14;;;;;;;0.60;0.60;;;17.90;59.40;;;;;;5032783;28;20543;-69
2022/04/12 10:40:44;;;;;;;0.40;0.30;;;18.10;59.00;;;;;;5032630;28;20739;-70
2022/04/12 10:43:11;;;;;;;0.40;0.30;;;18.10;57.60;;;;;;5033416;28;20371;-69
2022/04/12 10:45:46;;;;;;;0.40;0.23;;;18.40;58.30;;;;;;5031864;28;20733;-69
2022/04/12 10:48:23;;;;;;;0.40;0.20;;;18.70;58.10;;;;;;5033106;28;20384;-69
2022/04/12 10:50:56;;;;;;;0.40;0.20;;;18.60;57.70;;;;;;5032261;28;20383;-69
2022/04/12 10:53:39;;;;;;;0.40;0.20;;;18.40;57.40;;;;;;5032915;28;20423;-69
2022/04/12 10:56:13;;;;;;;0.40;0.20;;;18.70;57.00;;;;;;5032020;28;20403;-68
2022/04/12 10:58:39;;;;;;;0.40;0.20;;;19.10;58.10;;;;;;5032471;28;20390;-69
2022/04/12 11:01:10;;;;;;;0.40;0.30;;;19.60;57.00;;;;;;5032271;28;20383;-69
2022/04/12 11:03:42;;;;;;;0.40;0.30;;;19.40;54.80;;;;;;5032412;28;20383;-68
2022/04/12 11:06:11;;;;;;;0.40;0.20;;;19.50;55.60;;;;;;5031805;28;20411;-69
2022/04/12 11:08:46;;;;;;;1.00;0.70;;;19.50;54.40;;;;;;5032653;28;20395;-68
2022/04/12 11:11:18;;;;;;;0.40;0.40;;;19.70;54.60;;;;;;5015300;28;20397;-68
2022/04/12 11:13:44;;;;;;;0.40;0.30;;;19.70;54.40;;;;;;5011369;28;20392;-69
2022/04/12 11:16:12;;;;;;;0.40;0.20;;;19.90;55.60;;;;;;5011823;28;20391;-69
2022/04/12 11:18:52;;;;;;;0.40;0.20;;;19.60;56.10;;;;;;5012594;28;20377;-69
2022/04/12 11:21:19;;;;;;;0.40;0.30;;;19.90;55.80;;;;;;5011243;28;21261;-69
2022/04/12 11:23:57;;;;;;;0.40;0.30;;;20.00;55.60;;;;;;5012476;28;20440;-69
2022/04/12 11:26:27;;;;;;;0.40;0.30;;;20.30;55.20;;;;;;5011810;28;20735;-68
2022/04/12 11:28:56;;;;;;;0.40;0.20;;;20.40;55.80;;;;;;5012144;28;20524;-69
2022/04/12 11:31:22;;;;;;;0.40;0.30;;;20.50;55.50;;;;;;5011740;28;20381;-67
2022/04/12 11:33:49;;;;;;;0.40;0.40;;;20.40;54.80;;;;;;5012278;28;20421;-67
2022/04/12 11:36:19;;;;;;;0.40;0.30;;;20.70;54.10;;;;;;5010185;28;20400;-67
2022/04/12 11:38:45;;;;;;;0.40;0.40;;;21.20;53.50;;;;;;5012011;28;20413;-68
2022/04/12 11:41:10;;;;;;;0.40;0.22;;;21.90;52.70;;;;;;5012181;28;20472;-69
2022/04/12 11:43:36;;;;;;;0.40;0.30;;;21.80;52.60;;;;;;5011831;28;20604;-68
2022/04/12 11:46:03;;;;;;;0.40;0.20;;;21.80;53.00;;;;;;5012145;28;20381;-67
2022/04/12 11:48:30;;;;;;;0.40;0.20;;;21.80;51.40;;;;;;5011273;28;20385;-68
2022/04/12 11:50:57;;;;;;;0.40;0.30;;;22.30;53.00;;;;;;5012063;28;20385;-69
2022/04/12 11:53:25;;;;;;;0.40;0.20;;;22.30;52.40;;;;;;5011103;28;20377;-69
2022/04/12 11:55:51;;;;;;;0.40;0.20;;;22.60;52.00;;;;;;5011616;28;20770;-68
2022/04/12 11:58:22;;;;;;;0.40;0.20;;;22.40;51.20;;;;;;5012009;28;20385;-67
2022/04/12 12:00:49;;;;;;;0.47;0.35;;;23.30;49.10;;;;;;5011892;28;20385;-67
2022/04/12 12:03:18;;;;;;;0.40;0.30;;;23.60;48.40;;;;;;5011904;28;20411;-67
2022/04/12 12:05:45;;;;;;;0.40;0.20;;;24.00;47.20;;;;;;5011136;28;20911;-67
2022/04/12 12:08:12;;;;;;;0.40;0.20;;;23.70;48.30;;;;;;5010406;28;20401;-68
2022/04/12 12:10:38;;;;;;;0.40;0.30;;;23.20;49.40;;;;;;5023265;28;20407;-68
2022/04/12 12:13:07;;;;;;;0.40;0.20;;;23.10;50.20;;;;;;5031354;28;20921;-67
2022/04/12 12:15:34;;;;;;;0.40;0.30;;;22.90;48.60;;;;;;5030316;28;20473;-68
2022/04/12 12:18:06;;;;;;;0.40;0.20;;;22.90;50.00;;;;;;5031050;28;20890;-68
2022/04/12 12:20:37;;;;;;;0.40;0.30;;;23.50;51.20;;;;;;5030545;28;20391;-70
2022/04/12 12:23:05;;;;;;;0.40;0.20;;;24.00;51.10;;;;;;5031149;28;20383;-69
2022/04/12 12:25:46;;;;;;;0.40;0.30;;;24.90;48.80;;;;;;5031187;28;20403;-68
2022/04/12 12:28:20;;;;;;;0.40;0.20;;;23.10;47.10;;;;;;5030932;28;20379;-67
2022/04/12 12:30:55;;;;;;;0.40;0.20;;;24.00;47.20;;;;;;5030247;28;20847;-68
2022/04/12 12:33:24;;;;;;;0.40;0.20;;;24.10;48.20;;;;;;5030659;28;20401;-69
2022/04/12 12:35:49;;;;;;;0.40;0.20;;;24.50;50.30;;;;;;5030074;28;20498;-68
2022/04/12 12:38:17;;;;;;;0.40;0.40;;;24.20;50.00;;;;;;5030986;28;20584;-67
2022/04/12 12:40:44;;;;;;;0.40;0.30;;;23.90;46.50;;;;;;5030472;28;20457;-68
2022/04/12 12:43:13;;;;;;;0.40;0.30;;;23.90;47.30;;;;;;5031051;28;20383;-67
2022/04/12 12:45:46;;;;;;;0.40;0.30;;;23.30;48.30;;;;;;5030894;28;20390;-67
2022/04/12 12:48:15;;;;;;;0.40;0.30;;;22.60;49.20;;;;;;5030674;28;20906;-68
2022/04/12 12:50:42;;;;;;;0.40;0.30;;;22.80;50.00;;;;;;5030860;28;20394;-68
2022/04/12 12:53:12;;;;;;;0.40;0.40;;;23.00;49.30;;;;;;5030091;28;20875;-68
2022/04/12 12:55:51;;;;;;;0.70;0.40;;;22.30;50.20;;;;;;5030784;28;20426;-67